Terminal Aerodrome Forecast
Issued by NWS

Home | Current Version | Previous Version | Text Only | Print | Product List | Glossary On
Versions: 1 2 3 4 5 6 7 8 9 10 11 12 13 14 15 16 17 18
353
FTUS46 KMFR 261720
TAFOTH
TAF
KOTH 261720Z 2618/2718 31012G20KT P6SM -SHRA VCTS SCT015CB OVC025
     FM270300 VRB03KT P6SM -SHRA OVC020
     FM271200 18008G15KT P6SM SCT250=

USA.gov is the U.S. government's official web portal to all federal, state and local government web resources and services.